YYH weather

Taloyoak Airport
Taloyoak, Nunavut, Canada

Public forecast

Using degrees Celsius for public forecast. Weather courtesy of forecast.io.

METAR (pilot weather report)

Retrieved 2019/09/19 11:39 UTC (0 seconds ago):

CYYH 191139Z 36008KT 15SM SCT009 OVC012 02/01 A2963 RMK ST4SC4 SLP039

TAF (pilot weather forecast)

Retrieved 2019/09/19 06:39 UTC (5 hours ago):

TAF CYYH 190538Z 1906/1918 04008KT P6SM SCT006 OVC015 TEMPO 1906/1912 2SM -SN BR BKN006 OVC012 BECMG 1910/1912 36015KT FM191200 36015KT P6SM SCT006 OVC015 TEMPO 1912/1918 2SM -DZ BR BKN006 OVC012 RMK NXT FCST BY 191200Z